Time,TemperatureF,DewpointF,PressureIn,WindDirection,WindDirectionDegrees,WindSpeedMPH,WindSpeedGustMPH,Humidity,HourlyPrecipIn,Conditions,Clouds,dailyrainin,SoftwareType,DateUTC
2013-06-14 00:01:00,49.6,49.5,29.77,North,353,1.0,-999.0,99,-99.99,,,-99.99,custom,2013-06-14 04:01:00,
2013-06-14 00:06:00,49.6,49.5,29.74,North,9,1.0,-999.0,99,-99.99,,,-99.99,custom,2013-06-14 04:06:00,
2013-06-14 00:11:00,49.6,49.5,29.76,North,359,1.0,-999.0,99,-99.99,,,-99.99,custom,2013-06-14 04:11:00,
2013-06-14 00:16:00,49.8,49.6,29.74,ENE,68,0.0,-999.0,99,-99.99,,,-99.99,custom,2013-06-14 04:16:00,
2013-06-14 00:21:00,50.0,49.8,29.76,North,353,0.0,-999.0,99,-99.99,,,-99.99,custom,2013-06-14 04:21:00,
2013-06-14 00:26:00,50.0,49.8,29.76,NE,36,0.0,-999.0,99,-99.99,,,-99.99,custom,2013-06-14 04:26:00,
2013-06-14 00:31:00,49.8,49.6,29.74,NNE,12,2.0,-999.0,99,-99.99,,,-99.99,custom,2013-06-14 04:31:00,
2013-06-14 00:36:00,50.0,49.8,29.73,NNE,28,2.0,-999.0,99,-99.99,,,-99.99,custom,2013-06-14 04:36:00,
2013-06-14 00:41:00,50.2,50.0,29.72,SSW,201,1.0,-999.0,99,-99.99,,,-99.99,custom,2013-06-14 04:41:00,
2013-06-14 00:46:00,50.4,50.2,29.78,NE,49,1.0,-999.0,99,-99.99,,,-99.99,custom,2013-06-14 04:46:00,
2013-06-14 00:51:00,50.4,50.2,29.75,NE,36,1.0,-999.0,99,-99.99,,,-99.99,custom,2013-06-14 04:51:00,
2013-06-14 00:56:00,50.4,50.2,29.75,NNE,24,1.0,-999.0,99,-99.99,,,-99.99,custom,2013-06-14 04:56:00,
2013-06-14 01:01:00,50.9,50.7,29.74,NE,34,1.0,-999.0,99,-99.99,,,-99.99,custom,2013-06-14 05:01:00,
2013-06-14 01:06:00,51.1,50.9,29.73,North,7,1.0,-999.0,99,-99.99,,,-99.99,custom,2013-06-14 05:06:00,
2013-06-14 01:11:00,51.3,51.1,29.75,NNE,15,1.0,-999.0,99,-99.99,,,-99.99,custom,2013-06-14 05:11:00,
2013-06-14 01:16:00,51.1,50.9,29.76,NNW,343,2.0,-999.0,99,-99.99,,,-99.99,custom,2013-06-14 05:16:00,
2013-06-14 01:21:00,51.1,50.9,29.76,ENE,67,1.0,-999.0,99,-99.99,,,-99.99,custom,2013-06-14 05:21:00,
2013-06-14 01:26:00,51.1,50.9,29.72,North,354,1.0,-999.0,99,-99.99,,,-99.99,custom,2013-06-14 05:26:00,
2013-06-14 01:31:00,51.1,50.9,29.72,NE,34,3.0,-999.0,99,-99.99,,,-99.99,custom,2013-06-14 05:31:00,
2013-06-14 01:36:00,51.1,50.9,29.71,North,354,0.0,-999.0,99,-99.99,,,-99.99,custom,2013-06-14 05:36:00,
2013-06-14 01:41:00,51.1,50.9,29.73,NNW,335,4.0,-999.0,99,-99.99,,,-99.99,custom,2013-06-14 05:41:00,
2013-06-14 01:46:00,51.3,51.1,29.72,NE,45,1.0,-999.0,99,-99.99,,,-99.99,custom,2013-06-14 05:46:00,
2013-06-14 01:51:00,51.3,51.1,29.72,NNW,334,1.0,-999.0,99,-99.99,,,-99.99,custom,2013-06-14 05:51:00,
2013-06-14 01:56:00,51.1,50.9,29.71,NE,40,0.0,-999.0,99,-99.99,,,-99.99,custom,2013-06-14 05:56:00,
2013-06-14 02:02:00,51.3,51.1,29.73,NE,35,2.0,-999.0,99,-99.99,,,-99.99,custom,2013-06-14 06:02:00,
2013-06-14 02:07:00,50.5,50.2,29.74,North,353,6.0,-999.0,98,-99.99,,,-99.99,custom,2013-06-14 06:07:00,
2013-06-14 02:12:00,50.5,50.4,29.74,North,9,2.0,-999.0,99,-99.99,,,-99.99,custom,2013-06-14 06:12:00,
2013-06-14 02:17:00,50.5,50.4,29.71,NNE,30,2.0,-999.0,99,-99.99,,,-99.99,custom,2013-06-14 06:17:00,
2013-06-14 02:22:00,50.4,50.2,29.72,North,10,1.0,-999.0,99,-99.99,,,-99.99,custom,2013-06-14 06:22:00,
2013-06-14 02:27:00,50.4,50.2,29.73,NNW,347,0.0,-999.0,99,-99.99,,,-99.99,custom,2013-06-14 06:27:00,
2013-06-14 02:32:00,50.0,49.8,29.71,NNW,338,1.0,-999.0,99,-99.99,,,-99.99,custom,2013-06-14 06:32:00,
2013-06-14 02:37:00,50.0,49.8,29.71,NE,48,2.0,-999.0,99,-99.99,,,-99.99,custom,2013-06-14 06:37:00,
2013-06-14 02:42:00,50.0,49.8,29.71,NE,44,0.0,-999.0,99,-99.99,,,-99.99,custom,2013-06-14 06:42:00,
2013-06-14 02:47:00,50.0,49.8,29.71,NE,38,1.0,-999.0,99,-99.99,,,-99.99,custom,2013-06-14 06:47:00,
2013-06-14 02:52:00,50.2,50.0,29.70,NE,34,1.0,-999.0,99,-99.99,,,-99.99,custom,2013-06-14 06:52:00,
2013-06-14 02:57:00,50.2,50.0,29.73,NNE,20,1.0,-999.0,99,-99.99,,,-99.99,custom,2013-06-14 06:57:00,
2013-06-14 03:02:00,50.0,49.8,29.74,North,353,3.0,-999.0,99,-99.99,,,-99.99,custom,2013-06-14 07:02:00,
2013-06-14 03:07:00,50.4,50.2,29.73,NE,38,1.0,-999.0,99,-99.99,,,-99.99,custom,2013-06-14 07:07:00,
2013-06-14 03:12:00,50.5,50.4,29.74,NE,40,1.0,-999.0,99,-99.99,,,-99.99,custom,2013-06-14 07:12:00,
2013-06-14 03:17:00,50.4,50.2,29.74,NE,40,1.0,-999.0,99,-99.99,,,-99.99,custom,2013-06-14 07:17:00,
2013-06-14 03:22:00,50.4,50.2,29.71,NNE,32,1.0,-999.0,99,-99.99,,,-99.99,custom,2013-06-14 07:22:00,
2013-06-14 03:27:00,50.5,50.4,29.73,NE,49,1.0,-999.0,99,-99.99,,,-99.99,custom,2013-06-14 07:27:00,
2013-06-14 03:32:00,51.1,50.9,29.74,East,89,1.0,-999.0,99,-99.99,,,-99.99,custom,2013-06-14 07:32:00,
2013-06-14 03:37:00,50.5,50.4,29.74,North,357,1.0,-999.0,99,-99.99,,,-99.99,custom,2013-06-14 07:37:00,
2013-06-14 03:42:00,51.1,50.9,29.76,NE,37,0.0,-999.0,99,-99.99,,,-99.99,custom,2013-06-14 07:42:00,
2013-06-14 03:47:00,50.7,50.5,29.73,NNE,13,1.0,-999.0,99,-99.99,,,-99.99,custom,2013-06-14 07:47:00,
2013-06-14 03:52:00,51.6,51.4,29.75,ENE,66,1.0,-999.0,99,-99.99,,,-99.99,custom,2013-06-14 07:52:00,
2013-06-14 03:57:00,51.6,51.4,29.72,NE,38,0.0,-999.0,99,-99.99,,,-99.99,custom,2013-06-14 07:57:00,
2013-06-14 04:02:00,51.6,51.4,29.75,ENE,75,1.0,-999.0,99,-99.99,,,-99.99,custom,2013-06-14 08:02:00,
2013-06-14 04:07:00,52.2,52.0,29.73,NE,48,1.0,-999.0,99,-99.99,,,-99.99,custom,2013-06-14 08:07:00,
2013-06-14 04:12:00,52.2,52.0,29.73,NE,50,1.0,-999.0,99,-99.99,,,-99.99,custom,2013-06-14 08:12:00,
2013-06-14 04:17:00,52.0,51.8,29.75,NNE,23,1.0,-999.0,99,-99.99,,,-99.99,custom,2013-06-14 08:17:00,
2013-06-14 04:22:00,51.8,51.6,29.76,ENE,60,1.0,-999.0,99,-99.99,,,-99.99,custom,2013-06-14 08:22:00,
2013-06-14 04:27:00,51.6,51.4,29.73,NE,40,2.0,-999.0,99,-99.99,,,-99.99,custom,2013-06-14 08:27:00,
2013-06-14 04:32:00,51.8,51.6,29.73,ENE,63,1.0,-999.0,99,-99.99,,,-99.99,custom,2013-06-14 08:32:00,
2013-06-14 04:37:00,51.6,51.4,29.73,North,1,0.0,-999.0,99,-99.99,,,-99.99,custom,2013-06-14 08:37:00,
2013-06-14 04:42:00,51.4,51.3,29.74,ENE,71,1.0,-999.0,99,-99.99,,,-99.99,custom,2013-06-14 08:42:00,
2013-06-14 04:47:00,51.8,51.6,29.73,North,357,1.0,-999.0,99,-99.99,,,-99.99,custom,2013-06-14 08:47:00,
2013-06-14 04:52:00,51.6,51.4,29.74,ENE,74,2.0,-999.0,99,-99.99,,,-99.99,custom,2013-06-14 08:52:00,
2013-06-14 04:57:00,51.8,51.6,29.74,NNE,18,1.0,-999.0,99,-99.99,,,-99.99,custom,2013-06-14 08:57:00,
2013-06-14 05:02:00,51.8,51.6,29.73,NNE,27,2.0,-999.0,99,-99.99,,,-99.99,custom,2013-06-14 09:02:00,
2013-06-14 05:07:00,52.0,51.8,29.75,NNE,13,6.0,-999.0,99,-99.99,,,-99.99,custom,2013-06-14 09:07:00,
2013-06-14 05:12:00,52.0,51.8,29.75,NE,43,1.0,-999.0,99,-99.99,,,-99.99,custom,2013-06-14 09:12:00,
2013-06-14 05:17:00,52.2,52.0,29.75,NE,47,0.0,-999.0,99,-99.99,,,-99.99,custom,2013-06-14 09:17:00,
2013-06-14 05:22:00,51.8,51.6,29.75,NNE,13,1.0,-999.0,99,-99.99,,,-99.99,custom,2013-06-14 09:22:00,
2013-06-14 05:27:00,51.8,51.6,29.74,NE,46,1.0,-999.0,99,-99.99,,,-99.99,custom,2013-06-14 09:27:00,
2013-06-14 05:32:00,52.0,51.8,29.74,NE,44,1.0,-999.0,99,-99.99,,,-99.99,custom,2013-06-14 09:32:00,
2013-06-14 05:37:00,52.2,52.0,29.75,NE,52,1.0,-999.0,99,-99.99,,,-99.99,custom,2013-06-14 09:37:00,
2013-06-14 05:42:00,52.2,52.0,29.72,ENE,67,1.0,-999.0,99,-99.99,,,-99.99,custom,2013-06-14 09:42:00,
2013-06-14 05:47:00,52.2,52.0,29.76,ENE,63,0.0,-999.0,99,-99.99,,,-99.99,custom,2013-06-14 09:47:00,
2013-06-14 05:52:00,52.3,52.2,29.76,NNE,17,1.0,-999.0,99,-99.99,,,-99.99,custom,2013-06-14 09:52:00,
2013-06-14 05:57:00,52.5,52.3,29.77,NE,42,1.0,-999.0,99,-99.99,,,-99.99,custom,2013-06-14 09:57:00,
2013-06-14 06:02:00,52.3,52.2,29.77,NNW,330,2.0,-999.0,99,-99.99,,,-99.99,custom,2013-06-14 10:02:00,
2013-06-14 06:07:00,52.0,51.8,29.75,NNE,20,1.0,-999.0,99,-99.99,,,-99.99,custom,2013-06-14 10:07:00,
2013-06-14 06:12:00,52.5,52.3,29.73,ENE,72,1.0,-999.0,99,-99.99,,,-99.99,custom,2013-06-14 10:12:00,
2013-06-14 06:17:00,52.3,52.2,29.74,ENE,57,1.0,-999.0,99,-99.99,,,-99.99,custom,2013-06-14 10:17:00,
2013-06-14 06:22:00,52.2,52.0,29.76,NW,313,2.0,-999.0,99,-99.99,,,-99.99,custom,2013-06-14 10:22:00,
2013-06-14 06:27:00,52.2,52.0,29.76,North,4,1.0,-999.0,99,-99.99,,,-99.99,custom,2013-06-14 10:27:00,
2013-06-14 06:32:00,51.8,51.6,29.75,NNE,17,1.0,-999.0,99,-99.99,,,-99.99,custom,2013-06-14 10:32:00,
2013-06-14 06:37:00,51.8,51.6,29.78,NNE,18,1.0,-999.0,99,-99.99,,,-99.99,custom,2013-06-14 10:37:00,
2013-06-14 06:42:00,51.6,51.4,29.77,NNW,335,0.0,-999.0,99,-99.99,,,-99.99,custom,2013-06-14 10:42:00,
2013-06-14 06:47:00,51.8,51.6,29.75,NE,54,0.0,-999.0,99,-99.99,,,-99.99,custom,2013-06-14 10:47:00,
2013-06-14 06:52:00,52.0,51.8,29.76,NNE,22,3.0,-999.0,99,-99.99,,,-99.99,custom,2013-06-14 10:52:00,
2013-06-14 06:57:00,52.3,52.2,29.78,East,82,0.0,-999.0,99,-99.99,,,-99.99,custom,2013-06-14 10:57:00,
2013-06-14 07:02:00,52.3,52.2,29.78,NE,35,1.0,-999.0,99,-99.99,,,-99.99,custom,2013-06-14 11:02:00,
2013-06-14 07:07:00,52.0,51.8,29.77,NNE,31,0.0,-999.0,99,-99.99,,,-99.99,custom,2013-06-14 11:07:00,
2013-06-14 07:12:00,51.8,51.6,29.80,ENE,74,2.0,-999.0,99,-99.99,,,-99.99,custom,2013-06-14 11:12:00,
2013-06-14 07:17:00,52.2,52.0,29.81,ENE,75,0.0,-999.0,99,-99.99,,,-99.99,custom,2013-06-14 11:17:00,
2013-06-14 07:22:00,52.2,52.0,29.78,ENE,57,0.0,-999.0,99,-99.99,,,-99.99,custom,2013-06-14 11:22:00,
2013-06-14 07:27:00,51.8,51.6,29.77,NNW,334,2.0,-999.0,99,-99.99,,,-99.99,custom,2013-06-14 11:27:00,
2013-06-14 07:32:00,52.0,51.3,29.83,NNE,25,1.0,-999.0,97,-99.99,,,-99.99,custom,2013-06-14 11:32:00,
2013-06-14 07:37:00,51.8,51.6,29.80,NNE,32,1.0,-999.0,99,-99.99,,,-99.99,custom,2013-06-14 11:37:00,
2013-06-14 07:42:00,51.8,51.6,29.78,NNW,334,0.0,-999.0,99,-99.99,,,-99.99,custom,2013-06-14 11:42:00,
2013-06-14 07:47:00,51.8,51.6,29.78,ENE,68,1.0,-999.0,99,-99.99,,,-99.99,custom,2013-06-14 11:47:00,
2013-06-14 07:52:00,52.0,51.8,29.79,East,80,1.0,-999.0,99,-99.99,,,-99.99,custom,2013-06-14 11:52:00,
2013-06-14 07:57:00,52.3,52.2,29.81,East,88,0.0,-999.0,99,-99.99,,,-99.99,custom,2013-06-14 11:57:00,
2013-06-14 08:02:00,52.5,52.3,29.80,NNE,14,1.0,-999.0,99,-99.99,,,-99.99,custom,2013-06-14 12:02:00,
2013-06-14 08:07:00,52.9,52.7,29.78,East,83,0.0,-999.0,99,-99.99,,,-99.99,custom,2013-06-14 12:07:00,
2013-06-14 08:12:00,53.1,52.9,29.79,NNE,27,1.0,-999.0,99,-99.99,,,-99.99,custom,2013-06-14 12:12:00,
2013-06-14 08:17:00,53.1,52.9,29.79,North,7,1.0,-999.0,99,-99.99,,,-99.99,custom,2013-06-14 12:17:00,
2013-06-14 08:22:00,53.1,52.7,29.78,NE,43,1.0,-999.0,98,-99.99,,,-99.99,custom,2013-06-14 12:22:00,
2013-06-14 08:27:00,53.1,52.9,29.80,ENE,60,1.0,-999.0,99,-99.99,,,-99.99,custom,2013-06-14 12:27:00,
2013-06-14 08:32:00,53.1,52.9,29.79,NE,51,0.0,-999.0,99,-99.99,,,-99.99,custom,2013-06-14 12:32:00,
2013-06-14 08:37:00,52.7,52.5,29.81,ENE,68,0.0,-999.0,99,-99.99,,,-99.99,custom,2013-06-14 12:37:00,
2013-06-14 08:42:00,52.7,52.5,29.80,NNE,21,0.0,-999.0,99,-99.99,,,-99.99,custom,2013-06-14 12:42:00,
2013-06-14 08:47:00,53.1,52.9,29.82,NNE,17,1.0,-999.0,99,-99.99,,,-99.99,custom,2013-06-14 12:47:00,
2013-06-14 08:52:00,54.0,53.8,29.81,ENE,63,1.0,-999.0,99,-99.99,,,-99.99,custom,2013-06-14 12:52:00,
2013-06-14 08:57:00,53.8,53.4,29.81,NE,49,1.0,-999.0,99,-99.99,,,-99.99,custom,2013-06-14 12:57:00,
2013-06-14 09:02:00,53.6,53.4,29.78,NNW,337,1.0,-999.0,99,-99.99,,,-99.99,custom,2013-06-14 13:02:00,
2013-06-14 09:07:00,54.7,54.3,29.79,East,83,1.0,-999.0,99,-99.99,,,-99.99,custom,2013-06-14 13:07:00,
2013-06-14 09:12:00,54.9,54.7,29.80,East,81,2.0,-999.0,99,-99.99,,,-99.99,custom,2013-06-14 13:12:00,
2013-06-14 09:17:00,55.9,55.8,29.79,East,100,2.0,-999.0,99,-99.99,,,-99.99,custom,2013-06-14 13:17:00,
2013-06-14 09:22:00,55.6,54.9,29.79,NNE,21,1.0,-999.0,97,-99.99,,,-99.99,custom,2013-06-14 13:22:00,
2013-06-14 09:27:00,56.1,55.8,29.80,NNE,26,1.0,-999.0,99,-99.99,,,-99.99,custom,2013-06-14 13:27:00,
2013-06-14 09:32:00,56.7,56.5,29.78,ENE,76,1.0,-999.0,99,-99.99,,,-99.99,custom,2013-06-14 13:32:00,
2013-06-14 09:37:00,55.9,55.4,29.79,NNE,12,1.0,-999.0,98,-99.99,,,-99.99,custom,2013-06-14 13:37:00,
2013-06-14 09:42:00,55.9,54.5,29.79,North,2,1.0,-999.0,95,-99.99,,,-99.99,custom,2013-06-14 13:42:00,
2013-06-14 09:47:00,55.9,55.6,29.80,NNE,25,0.0,-999.0,98,-99.99,,,-99.99,custom,2013-06-14 13:47:00,
2013-06-14 09:52:00,55.9,54.3,29.80,NNE,16,1.0,-999.0,94,-99.99,,,-99.99,custom,2013-06-14 13:52:00,
2013-06-14 09:57:00,55.9,54.1,29.78,NE,34,1.0,-999.0,94,-99.99,,,-99.99,custom,2013-06-14 13:57:00,
2013-06-14 10:02:00,57.0,56.5,29.78,NNE,27,1.0,-999.0,98,-99.99,,,-99.99,custom,2013-06-14 14:02:00,
2013-06-14 10:07:00,57.0,55.8,29.80,ENE,73,1.0,-999.0,96,-99.99,,,-99.99,custom,2013-06-14 14:07:00,
2013-06-14 10:12:00,57.7,57.4,29.77,North,9,0.0,-999.0,99,-99.99,,,-99.99,custom,2013-06-14 14:12:00,
2013-06-14 10:17:00,59.5,59.0,29.79,SE,124,2.0,-999.0,98,-99.99,,,-99.99,custom,2013-06-14 14:17:00,
2013-06-14 10:22:00,60.3,59.9,29.80,SSW,207,1.0,-999.0,99,-99.99,,,-99.99,custom,2013-06-14 14:22:00,
2013-06-14 10:27:00,59.4,57.6,29.80,North,0,0.0,-999.0,93,-99.99,,,-99.99,custom,2013-06-14 14:27:00,
2013-06-14 10:32:00,60.3,59.0,29.77,ESE,108,1.0,-999.0,96,-99.99,,,-99.99,custom,2013-06-14 14:32:00,
2013-06-14 10:37:00,62.4,60.3,29.81,NNE,30,1.0,-999.0,92,-99.99,,,-99.99,custom,2013-06-14 14:37:00,
2013-06-14 10:42:00,61.0,54.3,29.77,North,0,3.0,-999.0,79,-99.99,,,-99.99,custom,2013-06-14 14:42:00,
2013-06-14 10:47:00,62.4,59.4,29.80,NNE,14,3.0,-999.0,90,-99.99,,,-99.99,custom,2013-06-14 14:47:00,
2013-06-14 10:52:00,62.2,57.6,29.82,NNE,16,1.0,-999.0,85,-99.99,,,-99.99,custom,2013-06-14 14:52:00,
2013-06-14 10:57:00,60.3,57.2,29.79,NNW,348,2.0,-999.0,89,-99.99,,,-99.99,custom,2013-06-14 14:57:00,
2013-06-14 11:02:00,60.3,57.6,29.80,North,11,1.0,-999.0,91,-99.99,,,-99.99,custom,2013-06-14 15:02:00,
2013-06-14 11:07:00,62.4,57.4,29.78,ESE,115,1.0,-999.0,84,-99.99,,,-99.99,custom,2013-06-14 15:07:00,
2013-06-14 11:12:00,63.7,60.8,29.80,NW,320,0.0,-999.0,90,-99.99,,,-99.99,custom,2013-06-14 15:12:00,
2013-06-14 11:17:00,61.7,55.9,29.80,WSW,247,2.0,-999.0,81,-99.99,,,-99.99,custom,2013-06-14 15:17:00,
2013-06-14 11:22:00,62.6,59.7,29.79,North,354,2.0,-999.0,90,-99.99,,,-99.99,custom,2013-06-14 15:22:00,
2013-06-14 11:27:00,64.2,57.9,29.81,NE,50,0.0,-999.0,80,-99.99,,,-99.99,custom,2013-06-14 15:27:00,
2013-06-14 11:32:00,66.2,57.6,29.82,SE,129,2.0,-999.0,73,-99.99,,,-99.99,custom,2013-06-14 15:32:00,
2013-06-14 11:37:00,67.1,60.6,29.80,North,349,1.0,-999.0,80,-99.99,,,-99.99,custom,2013-06-14 15:37:00,
2013-06-14 11:42:00,62.6,54.7,29.81,West,265,3.0,-999.0,75,-99.99,,,-99.99,custom,2013-06-14 15:42:00,
2013-06-14 11:48:00,62.8,58.5,29.82,North,8,0.0,-999.0,86,-99.99,,,-99.99,custom,2013-06-14 15:48:00,
2013-06-14 11:53:00,66.9,62.2,29.83,SE,130,1.0,-999.0,85,-99.99,,,-99.99,custom,2013-06-14 15:53:00,
2013-06-14 11:58:00,67.5,59.9,29.83,WSW,248,1.0,-999.0,76,-99.99,,,-99.99,custom,2013-06-14 15:58:00,
2013-06-14 12:03:00,68.5,61.5,29.80,SSE,165,1.0,-999.0,78,-99.99,,,-99.99,custom,2013-06-14 16:03:00,
2013-06-14 12:08:00,68.4,62.6,29.83,East,100,1.0,-999.0,82,-99.99,,,-99.99,custom,2013-06-14 16:08:00,
2013-06-14 12:13:00,66.7,58.3,29.84,NW,323,2.0,-999.0,74,-99.99,,,-99.99,custom,2013-06-14 16:13:00,
2013-06-14 12:18:00,68.2,59.2,29.85,NE,48,0.0,-999.0,73,-99.99,,,-99.99,custom,2013-06-14 16:18:00,
2013-06-14 12:23:00,66.7,59.9,29.82,North,11,1.0,-999.0,79,-99.99,,,-99.99,custom,2013-06-14 16:23:00,
2013-06-14 12:28:00,66.0,57.9,29.83,North,349,3.0,-999.0,75,-99.99,,,-99.99,custom,2013-06-14 16:28:00,
2013-06-14 12:33:00,66.0,57.0,29.83,NNW,333,1.0,-999.0,73,-99.99,,,-99.99,custom,2013-06-14 16:33:00,
2013-06-14 12:38:00,65.7,58.3,29.80,ESE,119,0.0,-999.0,77,-99.99,,,-99.99,custom,2013-06-14 16:38:00,
2013-06-14 12:43:00,67.3,60.3,29.81,ENE,66,1.0,-999.0,78,-99.99,,,-99.99,custom,2013-06-14 16:43:00,
2013-06-14 12:48:00,66.2,59.7,29.80,West,275,1.0,-999.0,79,-99.99,,,-99.99,custom,2013-06-14 16:48:00,
2013-06-14 12:53:00,64.9,61.2,29.80,SSW,192,1.0,-999.0,87,-99.99,,,-99.99,custom,2013-06-14 16:53:00,
2013-06-14 12:58:00,66.0,59.2,29.79,SSE,161,1.0,-999.0,78,-99.99,,,-99.99,custom,2013-06-14 16:58:00,
2013-06-14 13:03:00,65.7,55.9,29.79,ENE,70,1.0,-999.0,71,-99.99,,,-99.99,custom,2013-06-14 17:03:00,
2013-06-14 13:08:00,64.9,55.6,29.79,WNW,289,2.0,-999.0,72,-99.99,,,-99.99,custom,2013-06-14 17:08:00,
2013-06-14 13:13:00,65.8,58.3,29.83,West,279,1.0,-999.0,76,-99.99,,,-99.99,custom,2013-06-14 17:13:00,
2013-06-14 13:18:00,67.3,59.5,29.81,SW,231,2.0,-999.0,76,-99.99,,,-99.99,custom,2013-06-14 17:18:00,
2013-06-14 13:23:00,67.6,60.6,29.80,SE,141,0.0,-999.0,78,-99.99,,,-99.99,custom,2013-06-14 17:23:00,
2013-06-14 13:28:00,70.0,62.2,29.79,SE,137,0.0,-999.0,76,-99.99,,,-99.99,custom,2013-06-14 17:28:00,
2013-06-14 13:33:00,68.2,58.6,29.79,WNW,291,2.0,-999.0,72,-99.99,,,-99.99,custom,2013-06-14 17:33:00,
2013-06-14 13:38:00,67.5,60.1,29.82,West,268,0.0,-999.0,77,-99.99,,,-99.99,custom,2013-06-14 17:38:00,
2013-06-14 13:43:00,67.5,59.5,29.80,West,264,0.0,-999.0,75,-99.99,,,-99.99,custom,2013-06-14 17:43:00,
2013-06-14 13:48:00,67.3,62.4,29.79,West,264,2.0,-999.0,84,-99.99,,,-99.99,custom,2013-06-14 17:48:00,
2013-06-14 13:53:00,68.5,62.6,29.79,SW,214,1.0,-999.0,81,-99.99,,,-99.99,custom,2013-06-14 17:53:00,
2013-06-14 13:58:00,68.5,63.5,29.79,SSW,207,0.0,-999.0,84,-99.99,,,-99.99,custom,2013-06-14 17:58:00,
2013-06-14 14:03:00,69.4,62.2,29.80,East,88,0.0,-999.0,78,-99.99,,,-99.99,custom,2013-06-14 18:03:00,
2013-06-14 14:08:00,68.9,60.4,29.79,WNW,284,1.0,-999.0,74,-99.99,,,-99.99,custom,2013-06-14 18:08:00,
2013-06-14 14:13:00,72.7,62.8,29.79,NE,43,1.0,-999.0,71,-99.99,,,-99.99,custom,2013-06-14 18:13:00,
2013-06-14 14:18:00,71.8,63.5,29.78,SSW,210,0.0,-999.0,75,-99.99,,,-99.99,custom,2013-06-14 18:18:00,
2013-06-14 14:23:00,70.7,60.8,29.81,WSW,256,2.0,-999.0,71,-99.99,,,-99.99,custom,2013-06-14 18:23:00,
2013-06-14 14:28:00,71.8,58.8,29.87,ENE,60,4.0,-999.0,63,-99.99,,,-99.99,custom,2013-06-14 18:28:00,
2013-06-14 14:33:00,70.0,61.3,29.79,West,263,4.0,-999.0,74,-99.99,,,-99.99,custom,2013-06-14 18:33:00,
2013-06-14 14:38:00,69.6,58.5,29.76,NNW,346,2.0,-999.0,67,-99.99,,,-99.99,custom,2013-06-14 18:38:00,
2013-06-14 14:43:00,70.7,61.7,29.81,South,177,0.0,-999.0,73,-99.99,,,-99.99,custom,2013-06-14 18:43:00,
2013-06-14 14:48:00,71.4,62.8,29.89,WSW,241,1.0,-999.0,74,-99.99,,,-99.99,custom,2013-06-14 18:48:00,
2013-06-14 14:53:00,70.0,59.9,29.82,WSW,255,1.0,-999.0,70,-99.99,,,-99.99,custom,2013-06-14 18:53:00,
2013-06-14 14:58:00,72.3,64.8,29.80,NNW,334,1.0,-999.0,77,-99.99,,,-99.99,custom,2013-06-14 18:58:00,
2013-06-14 15:03:00,73.2,64.9,29.78,ESE,120,1.0,-999.0,75,-99.99,,,-99.99,custom,2013-06-14 19:03:00,
2013-06-14 15:08:00,72.9,61.3,29.78,North,2,2.0,-999.0,67,-99.99,,,-99.99,custom,2013-06-14 19:08:00,
2013-06-14 15:13:00,71.4,59.4,29.79,NNW,328,2.0,-999.0,65,-99.99,,,-99.99,custom,2013-06-14 19:13:00,
2013-06-14 15:18:00,73.2,62.8,29.79,NE,49,2.0,-999.0,70,-99.99,,,-99.99,custom,2013-06-14 19:18:00,
2013-06-14 15:23:00,74.3,63.7,29.78,NNE,16,1.0,-999.0,69,-99.99,,,-99.99,custom,2013-06-14 19:23:00,
2013-06-14 15:28:00,74.1,63.7,29.76,SSW,195,1.0,-999.0,70,-99.99,,,-99.99,custom,2013-06-14 19:28:00,
2013-06-14 15:33:00,75.9,67.3,29.78,SW,226,1.0,-999.0,74,-99.99,,,-99.99,custom,2013-06-14 19:33:00,
2013-06-14 15:38:00,75.9,64.9,29.79,North,353,1.0,-999.0,68,-99.99,,,-99.99,custom,2013-06-14 19:38:00,
2013-06-14 15:43:00,73.9,61.9,29.78,West,275,1.0,-999.0,66,-99.99,,,-99.99,custom,2013-06-14 19:43:00,
2013-06-14 15:48:00,73.6,60.4,29.75,ESE,102,2.0,-999.0,63,-99.99,,,-99.99,custom,2013-06-14 19:48:00,
2013-06-14 15:53:00,76.8,65.5,29.77,NNE,20,2.0,-999.0,68,-99.99,,,-99.99,custom,2013-06-14 19:53:00,
2013-06-14 15:58:00,76.8,65.5,29.78,ENE,70,1.0,-999.0,68,-99.99,,,-99.99,custom,2013-06-14 19:58:00,
2013-06-14 16:03:00,78.1,65.7,29.74,SSE,150,1.0,-999.0,65,-99.99,,,-99.99,custom,2013-06-14 20:03:00,
2013-06-14 16:08:00,76.8,60.3,29.78,NNE,29,2.0,-999.0,56,-99.99,,,-99.99,custom,2013-06-14 20:08:00,
2013-06-14 16:13:00,76.1,63.1,29.76,SSE,153,2.0,-999.0,64,-99.99,,,-99.99,custom,2013-06-14 20:13:00,
2013-06-14 16:18:00,75.4,61.5,29.77,NW,312,0.0,-999.0,62,-99.99,,,-99.99,custom,2013-06-14 20:18:00,
2013-06-14 16:23:00,77.4,63.7,29.76,West,273,1.0,-999.0,63,-99.99,,,-99.99,custom,2013-06-14 20:23:00,
2013-06-14 16:28:00,77.4,63.0,29.76,East,90,1.0,-999.0,61,-99.99,,,-99.99,custom,2013-06-14 20:28:00,
2013-06-14 16:33:00,80.2,66.6,29.78,NNE,25,2.0,-999.0,63,-99.99,,,-99.99,custom,2013-06-14 20:33:00,
2013-06-14 16:38:00,79.9,66.0,29.81,North,6,0.0,-999.0,63,-99.99,,,-99.99,custom,2013-06-14 20:38:00,
2013-06-14 16:43:00,81.9,68.0,29.76,East,80,0.0,-999.0,63,-99.99,,,-99.99,custom,2013-06-14 20:43:00,
2013-06-14 16:48:00,80.8,65.7,29.76,South,176,1.0,-999.0,60,-99.99,,,-99.99,custom,2013-06-14 20:48:00,
2013-06-14 16:53:00,81.1,65.8,29.78,East,94,3.0,-999.0,60,-99.99,,,-99.99,custom,2013-06-14 20:53:00,
2013-06-14 16:58:00,81.7,65.1,29.79,ENE,70,1.0,-999.0,57,-99.99,,,-99.99,custom,2013-06-14 20:58:00,
2013-06-14 17:03:00,80.6,61.5,29.77,North,359,1.0,-999.0,52,-99.99,,,-99.99,custom,2013-06-14 21:03:00,
2013-06-14 17:08:00,80.8,62.1,29.77,WSW,248,2.0,-999.0,53,-99.99,,,-99.99,custom,2013-06-14 21:08:00,
2013-06-14 17:13:00,81.1,63.5,29.77,ENE,63,1.0,-999.0,55,-99.99,,,-99.99,custom,2013-06-14 21:13:00,
2013-06-14 17:18:00,81.9,61.3,29.77,NNE,30,2.0,-999.0,50,-99.99,,,-99.99,custom,2013-06-14 21:18:00,
2013-06-14 17:23:00,82.0,64.2,29.75,NNE,12,0.0,-999.0,55,-99.99,,,-99.99,custom,2013-06-14 21:23:00,
2013-06-14 17:28:00,80.2,60.8,29.75,NNE,26,1.0,-999.0,51,-99.99,,,-99.99,custom,2013-06-14 21:28:00,
2013-06-14 17:33:00,80.4,63.5,29.75,West,277,2.0,-999.0,56,-99.99,,,-99.99,custom,2013-06-14 21:33:00,
2013-06-14 17:38:00,79.7,59.0,29.76,NNW,334,1.0,-999.0,49,-99.99,,,-99.99,custom,2013-06-14 21:38:00,
2013-06-14 17:43:00,79.5,60.4,29.75,West,277,1.0,-999.0,52,-99.99,,,-99.99,custom,2013-06-14 21:43:00,
2013-06-14 17:48:00,78.1,59.7,29.76,North,353,2.0,-999.0,53,-99.99,,,-99.99,custom,2013-06-14 21:48:00,
2013-06-14 17:53:00,79.0,60.6,29.78,NE,50,1.0,-999.0,53,-99.99,,,-99.99,custom,2013-06-14 21:53:00,
2013-06-14 17:58:00,79.2,62.4,29.77,NNE,21,0.0,-999.0,56,-99.99,,,-99.99,custom,2013-06-14 21:58:00,
2013-06-14 18:03:00,80.6,60.6,29.75,North,9,3.0,-999.0,50,-99.99,,,-99.99,custom,2013-06-14 22:03:00,
2013-06-14 18:08:00,80.4,65.1,29.78,NNE,22,0.0,-999.0,60,-99.99,,,-99.99,custom,2013-06-14 22:08:00,
2013-06-14 18:13:00,79.2,61.0,29.77,SW,230,1.0,-999.0,53,-99.99,,,-99.99,custom,2013-06-14 22:13:00,
2013-06-14 18:18:00,78.4,61.9,29.77,North,2,1.0,-999.0,57,-99.99,,,-99.99,custom,2013-06-14 22:18:00,
2013-06-14 18:23:00,76.1,61.0,29.78,WNW,283,1.0,-999.0,59,-99.99,,,-99.99,custom,2013-06-14 22:23:00,
2013-06-14 18:28:00,75.9,62.6,29.77,SE,134,0.0,-999.0,63,-99.99,,,-99.99,custom,2013-06-14 22:28:00,
2013-06-14 18:33:00,74.3,62.6,29.78,SSE,153,0.0,-999.0,67,-99.99,,,-99.99,custom,2013-06-14 22:33:00,
2013-06-14 18:38:00,73.0,59.7,29.79,East,96,0.0,-999.0,63,-99.99,,,-99.99,custom,2013-06-14 22:38:00,
2013-06-14 18:43:00,72.9,62.2,29.77,SE,126,0.0,-999.0,69,-99.99,,,-99.99,custom,2013-06-14 22:43:00,
2013-06-14 18:48:00,75.6,63.3,29.78,SW,215,0.0,-999.0,66,-99.99,,,-99.99,custom,2013-06-14 22:48:00,
2013-06-14 18:53:00,75.9,64.0,29.80,East,98,0.0,-999.0,67,-99.99,,,-99.99,custom,2013-06-14 22:53:00,
2013-06-14 18:58:00,77.4,64.8,29.82,ESE,115,0.0,-999.0,65,-99.99,,,-99.99,custom,2013-06-14 22:58:00,
2013-06-14 19:03:00,79.0,66.2,29.78,SE,124,1.0,-999.0,65,-99.99,,,-99.99,custom,2013-06-14 23:03:00,
2013-06-14 19:08:00,79.2,66.9,29.76,SE,124,1.0,-999.0,66,-99.99,,,-99.99,custom,2013-06-14 23:08:00,
2013-06-14 19:13:00,80.4,67.1,29.79,East,91,1.0,-999.0,64,-99.99,,,-99.99,custom,2013-06-14 23:13:00,
2013-06-14 19:18:00,79.2,66.7,29.81,SE,124,1.0,-999.0,66,-99.99,,,-99.99,custom,2013-06-14 23:18:00,
2013-06-14 19:23:00,76.8,67.1,29.76,ESE,121,0.0,-999.0,72,-99.99,,,-99.99,custom,2013-06-14 23:23:00,
2013-06-14 19:28:00,74.7,64.4,29.78,East,100,1.0,-999.0,70,-99.99,,,-99.99,custom,2013-06-14 23:28:00,
2013-06-14 19:33:00,72.7,62.8,29.80,East,86,1.0,-999.0,71,-99.99,,,-99.99,custom,2013-06-14 23:33:00,
2013-06-14 19:38:00,71.6,62.1,29.81,East,96,0.0,-999.0,72,-99.99,,,-99.99,custom,2013-06-14 23:38:00,
2013-06-14 19:43:00,71.4,63.1,29.78,ENE,76,0.0,-999.0,75,-99.99,,,-99.99,custom,2013-06-14 23:43:00,
2013-06-14 19:48:00,71.1,60.8,29.79,SE,125,1.0,-999.0,70,-99.99,,,-99.99,custom,2013-06-14 23:48:00,
2013-06-14 19:53:00,71.2,62.2,29.84,SE,128,1.0,-999.0,73,-99.99,,,-99.99,custom,2013-06-14 23:53:00,
2013-06-14 19:58:00,70.7,62.2,29.80,ESE,113,1.0,-999.0,74,-99.99,,,-99.99,custom,2013-06-14 23:58:00,
2013-06-14 20:03:00,70.7,63.0,29.80,East,97,1.0,-999.0,76,-99.99,,,-99.99,custom,2013-06-15 00:03:00,
2013-06-14 20:08:00,70.0,63.0,29.79,SE,127,1.0,-999.0,78,-99.99,,,-99.99,custom,2013-06-15 00:08:00,
2013-06-14 20:13:00,69.3,61.5,29.80,SE,127,0.0,-999.0,76,-99.99,,,-99.99,custom,2013-06-15 00:13:00,
2013-06-14 20:18:00,68.9,61.7,29.79,SSE,150,1.0,-999.0,77,-99.99,,,-99.99,custom,2013-06-15 00:18:00,
2013-06-14 20:23:00,68.5,61.9,29.78,ESE,120,1.0,-999.0,79,-99.99,,,-99.99,custom,2013-06-15 00:23:00,
2013-06-14 20:28:00,67.6,62.6,29.79,ESE,106,1.0,-999.0,84,-99.99,,,-99.99,custom,2013-06-15 00:28:00,
2013-06-14 20:33:00,67.5,62.6,29.81,SE,144,1.0,-999.0,84,-99.99,,,-99.99,custom,2013-06-15 00:33:00,
2013-06-14 20:38:00,66.7,61.2,29.81,SE,126,1.0,-999.0,82,-99.99,,,-99.99,custom,2013-06-15 00:38:00,
2013-06-14 20:43:00,66.4,61.0,29.82,SW,215,0.0,-999.0,83,-99.99,,,-99.99,custom,2013-06-15 00:43:00,
2013-06-14 20:48:00,66.6,59.0,29.83,ESE,105,0.0,-999.0,77,-99.99,,,-99.99,custom,2013-06-15 00:48:00,
2013-06-14 20:54:00,66.4,61.3,29.82,SSE,155,1.0,-999.0,84,-99.99,,,-99.99,custom,2013-06-15 00:54:00,
2013-06-14 20:59:00,66.0,60.8,29.82,SE,142,2.0,-999.0,83,-99.99,,,-99.99,custom,2013-06-15 00:59:00,
2013-06-14 21:04:00,65.7,61.9,29.83,ESE,103,1.0,-999.0,87,-99.99,,,-99.99,custom,2013-06-15 01:04:00,
2013-06-14 21:09:00,65.1,61.9,29.82,SE,141,2.0,-999.0,89,-99.99,,,-99.99,custom,2013-06-15 01:09:00,
2013-06-14 21:14:00,64.9,62.1,29.83,SE,145,0.0,-999.0,90,-99.99,,,-99.99,custom,2013-06-15 01:14:00,
2013-06-14 21:19:00,64.9,62.4,29.83,SE,135,1.0,-999.0,92,-99.99,,,-99.99,custom,2013-06-15 01:19:00,
2013-06-14 21:24:00,64.6,62.6,29.83,East,81,0.0,-999.0,93,-99.99,,,-99.99,custom,2013-06-15 01:24:00,
2013-06-14 21:29:00,64.0,63.1,29.83,South,173,0.0,-999.0,97,-99.99,,,-99.99,custom,2013-06-15 01:29:00,
2013-06-14 21:34:00,63.9,60.8,29.83,North,6,0.0,-999.0,90,-99.99,,,-99.99,custom,2013-06-15 01:34:00,
2013-06-14 21:39:00,63.9,59.7,29.83,South,173,0.0,-999.0,86,-99.99,,,-99.99,custom,2013-06-15 01:39:00,
2013-06-14 21:44:00,63.7,61.3,29.84,ESE,121,0.0,-999.0,92,-99.99,,,-99.99,custom,2013-06-15 01:44:00,
2013-06-14 21:49:00,63.9,60.8,29.85,ESE,108,0.0,-999.0,90,-99.99,,,-99.99,custom,2013-06-15 01:49:00,
2013-06-14 21:54:00,63.7,61.5,29.83,SE,135,0.0,-999.0,92,-99.99,,,-99.99,custom,2013-06-15 01:54:00,
2013-06-14 21:59:00,63.7,60.1,29.83,SW,236,1.0,-999.0,88,-99.99,,,-99.99,custom,2013-06-15 01:59:00,
2013-06-14 22:04:00,63.3,60.8,29.81,WSW,254,1.0,-999.0,91,-99.99,,,-99.99,custom,2013-06-15 02:04:00,